logo
Search for airport 
image banner adimage banner adimage banner ad
image banner ad

FADC - Douglas Cape

Located in , South Africa

ICAO - , IATA -

Data provided by Airmate  

General information

Coordinates: S29°4'33" E23°48'10"
Elevation is 3372 feet MSL.
 
View others Airports in Northern Cape

Operational data

Special qualification required
Current time UTC:
Current local time:
Weather at : - ( 0 km )
METAR: KIXA 230505Z AUTO 00000KT 10SM CLR 02/02 A3017 RMK AO2
View NOTAMs / SUP AIP / TFR affecting this airport [VIEW]
Communications frequencies: [VIEW]

Runways:

RWY identifierQFULength (ft)Width (ft)SurfaceLDA (ft)
1630°488849ASPH
34210°488849ASPH

Airport contact information

Address: South Africa

Satellite view of FADC